Hachita, New Mexico
Current Conditions -  °F | °C
As of 11:15 AM on Thursday 27 Nov 2014 (Local Time) from KLSB Reporting Station
Clear Clear  
Wind Chill: 63°   Ceiling: Unl
Heat Index: 63°   Visibility: 10mi
Dew Point: 23°   Wind: 14mph
Humidity: 22%   Direction: 130°SE
Pressure: 30.38"   Gusts: 21mph
Location:  31.92°N, 108.32°W
Report Text: KLSB 271815Z AUTO 13012G18KT 10SM CLR 17/M05 A3038 RMK AO2
Loading
Personal Weather Stations






























Interactive Weather Map New forecast layout! Learn more

10-Day Weather Forecast

Advertisements
Track Severe Weather on mobile